sensor_id;sensor_type;location;lat;lon;timestamp;temperature;humidity
32400;DHT22;45045;45.440;9.178;2023-02-23T00:01:17;14.20;99.90
32400;DHT22;45045;45.440;9.178;2023-02-23T00:03:44;14.30;99.90
32400;DHT22;45045;45.440;9.178;2023-02-23T00:06:11;14.30;99.90
32400;DHT22;45045;45.440;9.178;2023-02-23T00:08:38;14.30;99.90
32400;DHT22;45045;45.440;9.178;2023-02-23T00:11:06;14.20;99.90
32400;DHT22;45045;45.440;9.178;2023-02-23T00:13:33;14.20;99.90
32400;DHT22;45045;45.440;9.178;2023-02-23T00:16:07;14.20;99.90
32400;DHT22;45045;45.440;9.178;2023-02-23T00:18:33;14.20;99.90
32400;DHT22;45045;45.440;9.178;2023-02-23T00:21:13;14.20;99.90
32400;DHT22;45045;45.440;9.178;2023-02-23T00:23:56;14.30;99.90
32400;DHT22;45045;45.440;9.178;2023-02-23T00:26:24;14.30;99.90
32400;DHT22;45045;45.440;9.178;2023-02-23T00:28:52;14.30;99.90
32400;DHT22;45045;45.440;9.178;2023-02-23T00:31:19;14.30;99.90
32400;DHT22;45045;45.440;9.178;2023-02-23T00:33:51;14.30;99.90
32400;DHT22;45045;45.440;9.178;2023-02-23T00:36:20;14.20;99.90
32400;DHT22;45045;45.440;9.178;2023-02-23T00:38:46;14.20;99.90
32400;DHT22;45045;45.440;9.178;2023-02-23T00:41:14;14.20;99.90
32400;DHT22;45045;45.440;9.178;2023-02-23T00:43:59;14.20;99.90
32400;DHT22;45045;45.440;9.178;2023-02-23T00:46:27;14.20;99.90
32400;DHT22;45045;45.440;9.178;2023-02-23T00:48:55;14.20;99.90
32400;DHT22;45045;45.440;9.178;2023-02-23T00:51:21;14.20;99.90
32400;DHT22;45045;45.440;9.178;2023-02-23T00:53:47;14.10;99.90
32400;DHT22;45045;45.440;9.178;2023-02-23T00:56:14;14.10;99.90
32400;DHT22;45045;45.440;9.178;2023-02-23T00:58:40;14.10;99.90
32400;DHT22;45045;45.440;9.178;2023-02-23T01:01:08;14.10;99.90
32400;DHT22;45045;45.440;9.178;2023-02-23T01:03:36;14.20;99.90
32400;DHT22;45045;45.440;9.178;2023-02-23T01:06:04;14.10;99.90
32400;DHT22;45045;45.440;9.178;2023-02-23T01:08:34;14.10;99.90
32400;DHT22;45045;45.440;9.178;2023-02-23T01:11:27;14.10;99.90
32400;DHT22;45045;45.440;9.178;2023-02-23T01:13:55;14.10;99.90
32400;DHT22;45045;45.440;9.178;2023-02-23T01:16:25;14.10;99.90
32400;DHT22;45045;45.440;9.178;2023-02-23T01:18:57;14.10;99.90
32400;DHT22;45045;45.440;9.178;2023-02-23T01:21:26;14.10;99.90
32400;DHT22;45045;45.440;9.178;2023-02-23T01:23:52;14.10;99.90
32400;DHT22;45045;45.440;9.178;2023-02-23T01:26:36;14.00;99.90
32400;DHT22;45045;45.440;9.178;2023-02-23T01:29:16;14.00;99.90
32400;DHT22;45045;45.440;9.178;2023-02-23T01:31:45;14.00;99.90
32400;DHT22;45045;45.440;9.178;2023-02-23T01:34:13;14.00;99.90
32400;DHT22;45045;45.440;9.178;2023-02-23T01:36:41;14.00;99.90
32400;DHT22;45045;45.440;9.178;2023-02-23T01:39:09;14.00;99.90
32400;DHT22;45045;45.440;9.178;2023-02-23T01:41:37;14.00;99.90
32400;DHT22;45045;45.440;9.178;2023-02-23T01:46:32;14.00;99.90
32400;DHT22;45045;45.440;9.178;2023-02-23T01:48:58;13.90;99.90
32400;DHT22;45045;45.440;9.178;2023-02-23T01:51:28;14.00;99.90
32400;DHT22;45045;45.440;9.178;2023-02-23T01:54:03;14.00;99.90
32400;DHT22;45045;45.440;9.178;2023-02-23T01:56:33;14.00;99.90
32400;DHT22;45045;45.440;9.178;2023-02-23T01:59:05;13.90;99.90
32400;DHT22;45045;45.440;9.178;2023-02-23T02:01:32;13.90;99.90
32400;DHT22;45045;45.440;9.178;2023-02-23T02:04:01;13.90;99.90
32400;DHT22;45045;45.440;9.178;2023-02-23T02:06:30;14.00;99.90
32400;DHT22;45045;45.440;9.178;2023-02-23T02:09:06;13.90;99.90
32400;DHT22;45045;45.440;9.178;2023-02-23T02:11:33;13.90;99.90
32400;DHT22;45045;45.440;9.178;2023-02-23T02:14:09;13.90;99.90
32400;DHT22;45045;45.440;9.178;2023-02-23T02:22:20;13.80;99.90
32400;DHT22;45045;45.440;9.178;2023-02-23T02:25:22;13.80;99.90
32400;DHT22;45045;45.440;9.178;2023-02-23T02:28:02;13.80;99.90
32400;DHT22;45045;45.440;9.178;2023-02-23T02:30:46;13.80;99.90
32400;DHT22;45045;45.440;9.178;2023-02-23T02:36:13;13.80;99.90
32400;DHT22;45045;45.440;9.178;2023-02-23T02:47:22;13.80;99.90
32400;DHT22;45045;45.440;9.178;2023-02-23T02:50:04;13.70;99.90
32400;DHT22;45045;45.440;9.178;2023-02-23T02:55:17;13.70;99.90
32400;DHT22;45045;45.440;9.178;2023-02-23T02:57:49;13.70;99.90
32400;DHT22;45045;45.440;9.178;2023-02-23T03:00:27;13.70;99.90
32400;DHT22;45045;45.440;9.178;2023-02-23T03:03:34;13.70;99.90
32400;DHT22;45045;45.440;9.178;2023-02-23T03:06:23;13.80;99.90
32400;DHT22;45045;45.440;9.178;2023-02-23T03:18:39;13.80;99.90
32400;DHT22;45045;45.440;9.178;2023-02-23T03:21:32;13.80;99.90
32400;DHT22;45045;45.440;9.178;2023-02-23T03:24:39;13.80;99.90
32400;DHT22;45045;45.440;9.178;2023-02-23T03:27:50;13.80;99.90
32400;DHT22;45045;45.440;9.178;2023-02-23T03:33:43;13.70;99.90
32400;DHT22;45045;45.440;9.178;2023-02-23T03:36:32;13.70;99.90
32400;DHT22;45045;45.440;9.178;2023-02-23T03:39:36;13.60;99.90
32400;DHT22;45045;45.440;9.178;2023-02-23T03:42:27;13.60;99.90
32400;DHT22;45045;45.440;9.178;2023-02-23T03:45:16;13.70;99.90
32400;DHT22;45045;45.440;9.178;2023-02-23T03:48:04;13.70;99.90
32400;DHT22;45045;45.440;9.178;2023-02-23T03:50:55;13.70;99.90
32400;DHT22;45045;45.440;9.178;2023-02-23T03:53:49;13.80;99.90
32400;DHT22;45045;45.440;9.178;2023-02-23T03:56:36;13.80;99.90
32400;DHT22;45045;45.440;9.178;2023-02-23T03:59:25;13.80;99.90
32400;DHT22;45045;45.440;9.178;2023-02-23T04:02:14;13.80;99.90
32400;DHT22;45045;45.440;9.178;2023-02-23T04:05:01;13.80;99.90
32400;DHT22;45045;45.440;9.178;2023-02-23T04:07:50;13.70;99.90
32400;DHT22;45045;45.440;9.178;2023-02-23T04:10:44;13.70;99.90
32400;DHT22;45045;45.440;9.178;2023-02-23T04:13:30;13.80;99.90
32400;DHT22;45045;45.440;9.178;2023-02-23T04:16:07;13.80;99.90
32400;DHT22;45045;45.440;9.178;2023-02-23T04:18:36;13.80;99.90
32400;DHT22;45045;45.440;9.178;2023-02-23T04:21:03;13.80;99.90
32400;DHT22;45045;45.440;9.178;2023-02-23T04:23:29;13.80;99.90
32400;DHT22;45045;45.440;9.178;2023-02-23T04:25:55;13.80;99.90
32400;DHT22;45045;45.440;9.178;2023-02-23T04:28:22;13.80;99.90
32400;DHT22;45045;45.440;9.178;2023-02-23T04:30:48;13.70;99.90
32400;DHT22;45045;45.440;9.178;2023-02-23T04:33:14;13.70;99.90
32400;DHT22;45045;45.440;9.178;2023-02-23T04:35:40;13.70;99.90
32400;DHT22;45045;45.440;9.178;2023-02-23T04:38:06;13.70;99.90
32400;DHT22;45045;45.440;9.178;2023-02-23T04:40:32;13.70;99.90
32400;DHT22;45045;45.440;9.178;2023-02-23T04:42:58;13.70;99.90
32400;DHT22;45045;45.440;9.178;2023-02-23T04:45:25;13.80;99.90
32400;DHT22;45045;45.440;9.178;2023-02-23T04:47:51;13.70;99.90
32400;DHT22;45045;45.440;9.178;2023-02-23T04:50:17;13.70;99.90
32400;DHT22;45045;45.440;9.178;2023-02-23T04:52:43;13.70;99.90
32400;DHT22;45045;45.440;9.178;2023-02-23T04:55:16;13.70;99.90
32400;DHT22;45045;45.440;9.178;2023-02-23T04:57:42;13.70;99.90
32400;DHT22;45045;45.440;9.178;2023-02-23T05:00:09;13.60;99.90
32400;DHT22;45045;45.440;9.178;2023-02-23T05:02:34;13.60;99.90
32400;DHT22;45045;45.440;9.178;2023-02-23T05:05:00;13.60;99.90
32400;DHT22;45045;45.440;9.178;2023-02-23T05:07:26;13.60;99.90
32400;DHT22;45045;45.440;9.178;2023-02-23T05:09:51;13.60;99.90
32400;DHT22;45045;45.440;9.178;2023-02-23T05:12:17;13.60;99.90
32400;DHT22;45045;45.440;9.178;2023-02-23T05:14:43;13.60;99.90
32400;DHT22;45045;45.440;9.178;2023-02-23T05:17:08;13.60;99.90
32400;DHT22;45045;45.440;9.178;2023-02-23T05:19:34;13.60;99.90
32400;DHT22;45045;45.440;9.178;2023-02-23T05:22:00;13.60;99.90
32400;DHT22;45045;45.440;9.178;2023-02-23T05:24:26;13.60;99.90
32400;DHT22;45045;45.440;9.178;2023-02-23T05:26:51;13.60;99.90
32400;DHT22;45045;45.440;9.178;2023-02-23T05:29:18;13.50;99.90
32400;DHT22;45045;45.440;9.178;2023-02-23T05:31:44;13.50;99.90
32400;DHT22;45045;45.440;9.178;2023-02-23T05:34:10;13.50;99.90
32400;DHT22;45045;45.440;9.178;2023-02-23T05:36:36;13.50;99.90
32400;DHT22;45045;45.440;9.178;2023-02-23T05:39:03;13.60;99.90
32400;DHT22;45045;45.440;9.178;2023-02-23T05:41:28;13.60;99.90
32400;DHT22;45045;45.440;9.178;2023-02-23T05:43:54;13.60;99.90
32400;DHT22;45045;45.440;9.178;2023-02-23T05:46:23;13.50;99.90
32400;DHT22;45045;45.440;9.178;2023-02-23T05:48:50;13.50;99.90
32400;DHT22;45045;45.440;9.178;2023-02-23T05:51:16;13.50;99.90
32400;DHT22;45045;45.440;9.178;2023-02-23T05:53:43;13.50;99.90
32400;DHT22;45045;45.440;9.178;2023-02-23T05:56:13;13.50;99.90
32400;DHT22;45045;45.440;9.178;2023-02-23T05:58:42;13.50;99.90
32400;DHT22;45045;45.440;9.178;2023-02-23T06:01:08;13.50;99.90
32400;DHT22;45045;45.440;9.178;2023-02-23T06:03:33;13.50;99.90
32400;DHT22;45045;45.440;9.178;2023-02-23T06:06:00;13.50;99.90
32400;DHT22;45045;45.440;9.178;2023-02-23T06:08:25;13.40;99.90
32400;DHT22;45045;45.440;9.178;2023-02-23T06:10:51;13.40;99.90
32400;DHT22;45045;45.440;9.178;2023-02-23T06:13:17;13.40;99.90
32400;DHT22;45045;45.440;9.178;2023-02-23T06:15:43;13.40;99.90
32400;DHT22;45045;45.440;9.178;2023-02-23T06:18:09;13.40;99.90
32400;DHT22;45045;45.440;9.178;2023-02-23T06:20:36;13.30;99.90
32400;DHT22;45045;45.440;9.178;2023-02-23T06:23:02;13.30;99.90
32400;DHT22;45045;45.440;9.178;2023-02-23T06:25:28;13.30;99.90
32400;DHT22;45045;45.440;9.178;2023-02-23T06:27:54;13.40;99.90
32400;DHT22;45045;45.440;9.178;2023-02-23T06:30:19;13.40;99.90
32400;DHT22;45045;45.440;9.178;2023-02-23T06:32:45;13.40;99.90
32400;DHT22;45045;45.440;9.178;2023-02-23T06:35:11;13.30;99.90
32400;DHT22;45045;45.440;9.178;2023-02-23T06:37:37;13.40;99.90
32400;DHT22;45045;45.440;9.178;2023-02-23T06:40:03;13.40;99.90
32400;DHT22;45045;45.440;9.178;2023-02-23T06:42:29;13.40;99.90
32400;DHT22;45045;45.440;9.178;2023-02-23T06:44:55;13.40;99.90
32400;DHT22;45045;45.440;9.178;2023-02-23T06:47:20;13.40;99.90
32400;DHT22;45045;45.440;9.178;2023-02-23T06:49:46;13.40;99.90
32400;DHT22;45045;45.440;9.178;2023-02-23T06:52:12;13.40;99.90
32400;DHT22;45045;45.440;9.178;2023-02-23T06:54:41;13.40;99.90
32400;DHT22;45045;45.440;9.178;2023-02-23T06:57:07;13.40;99.90
32400;DHT22;45045;45.440;9.178;2023-02-23T06:59:33;13.40;99.90
32400;DHT22;45045;45.440;9.178;2023-02-23T07:01:59;14.10;99.90
32400;DHT22;45045;45.440;9.178;2023-02-23T07:04:24;14.00;99.90
32400;DHT22;45045;45.440;9.178;2023-02-23T07:06:50;13.90;99.90
32400;DHT22;45045;45.440;9.178;2023-02-23T07:09:16;13.80;99.90
32400;DHT22;45045;45.440;9.178;2023-02-23T07:11:42;13.70;99.90
32400;DHT22;45045;45.440;9.178;2023-02-23T07:14:09;13.70;99.90
32400;DHT22;45045;45.440;9.178;2023-02-23T07:16:36;13.70;99.90
32400;DHT22;45045;45.440;9.178;2023-02-23T07:19:02;13.70;99.90
32400;DHT22;45045;45.440;9.178;2023-02-23T07:21:29;13.70;99.90
32400;DHT22;45045;45.440;9.178;2023-02-23T07:23:56;13.70;99.90
32400;DHT22;45045;45.440;9.178;2023-02-23T07:26:22;13.70;99.90
32400;DHT22;45045;45.440;9.178;2023-02-23T07:28:47;14.00;99.90
32400;DHT22;45045;45.440;9.178;2023-02-23T07:31:13;14.20;99.90
32400;DHT22;45045;45.440;9.178;2023-02-23T07:33:39;14.10;99.90
32400;DHT22;45045;45.440;9.178;2023-02-23T07:36:05;14.10;99.90
32400;DHT22;45045;45.440;9.178;2023-02-23T07:38:31;14.20;99.90
32400;DHT22;45045;45.440;9.178;2023-02-23T07:40:57;14.20;99.90
32400;DHT22;45045;45.440;9.178;2023-02-23T07:43:22;14.20;99.90
32400;DHT22;45045;45.440;9.178;2023-02-23T07:45:49;14.30;99.90
32400;DHT22;45045;45.440;9.178;2023-02-23T07:48:15;14.40;99.90
32400;DHT22;45045;45.440;9.178;2023-02-23T07:50:41;14.70;99.90
32400;DHT22;45045;45.440;9.178;2023-02-23T07:53:07;15.10;99.90
32400;DHT22;45045;45.440;9.178;2023-02-23T07:55:32;15.30;99.90
32400;DHT22;45045;45.440;9.178;2023-02-23T07:57:58;15.30;99.90
32400;DHT22;45045;45.440;9.178;2023-02-23T08:00:24;15.10;99.90
32400;DHT22;45045;45.440;9.178;2023-02-23T08:02:51;15.10;99.90
32400;DHT22;45045;45.440;9.178;2023-02-23T08:05:18;15.40;99.90
32400;DHT22;45045;45.440;9.178;2023-02-23T08:07:44;15.50;99.90
32400;DHT22;45045;45.440;9.178;2023-02-23T08:10:10;15.60;99.90
32400;DHT22;45045;45.440;9.178;2023-02-23T08:12:36;15.60;99.90
32400;DHT22;45045;45.440;9.178;2023-02-23T08:15:06;15.70;99.90
32400;DHT22;45045;45.440;9.178;2023-02-23T08:17:33;15.70;99.90
32400;DHT22;45045;45.440;9.178;2023-02-23T08:19:59;15.60;99.90
32400;DHT22;45045;45.440;9.178;2023-02-23T08:22:25;15.50;99.90
32400;DHT22;45045;45.440;9.178;2023-02-23T08:24:51;15.30;99.90
32400;DHT22;45045;45.440;9.178;2023-02-23T08:27:18;15.40;99.90
32400;DHT22;45045;45.440;9.178;2023-02-23T08:29:44;15.60;99.90
32400;DHT22;45045;45.440;9.178;2023-02-23T08:32:10;15.70;99.90
32400;DHT22;45045;45.440;9.178;2023-02-23T08:34:40;15.80;99.90
32400;DHT22;45045;45.440;9.178;2023-02-23T08:37:06;15.70;99.90
32400;DHT22;45045;45.440;9.178;2023-02-23T08:39:31;15.70;99.90
32400;DHT22;45045;45.440;9.178;2023-02-23T08:41:57;15.80;99.90
32400;DHT22;45045;45.440;9.178;2023-02-23T08:44:23;16.20;99.90
32400;DHT22;45045;45.440;9.178;2023-02-23T08:46:48;16.50;99.90
32400;DHT22;45045;45.440;9.178;2023-02-23T08:49:14;16.70;99.90
32400;DHT22;45045;45.440;9.178;2023-02-23T08:51:40;16.70;99.90
32400;DHT22;45045;45.440;9.178;2023-02-23T08:54:06;16.40;99.90
32400;DHT22;45045;45.440;9.178;2023-02-23T08:56:37;16.30;99.90
32400;DHT22;45045;45.440;9.178;2023-02-23T08:59:03;16.20;99.90
32400;DHT22;45045;45.440;9.178;2023-02-23T09:01:29;16.20;99.90
32400;DHT22;45045;45.440;9.178;2023-02-23T09:03:54;16.50;99.90
32400;DHT22;45045;45.440;9.178;2023-02-23T09:06:23;16.80;99.90
32400;DHT22;45045;45.440;9.178;2023-02-23T09:08:50;17.00;99.90
32400;DHT22;45045;45.440;9.178;2023-02-23T09:11:15;17.10;99.90
32400;DHT22;45045;45.440;9.178;2023-02-23T09:13:41;17.30;99.90
32400;DHT22;45045;45.440;9.178;2023-02-23T09:16:07;17.10;99.90
32400;DHT22;45045;45.440;9.178;2023-02-23T09:18:33;17.00;99.90
32400;DHT22;45045;45.440;9.178;2023-02-23T09:21:02;17.10;99.90
32400;DHT22;45045;45.440;9.178;2023-02-23T09:23:32;17.10;99.90
32400;DHT22;45045;45.440;9.178;2023-02-23T09:26:04;17.30;99.90
32400;DHT22;45045;45.440;9.178;2023-02-23T09:28:30;17.50;99.90
32400;DHT22;45045;45.440;9.178;2023-02-23T09:31:08;17.60;99.90
32400;DHT22;45045;45.440;9.178;2023-02-23T09:33:34;17.90;99.90
32400;DHT22;45045;45.440;9.178;2023-02-23T09:36:07;18.20;99.90
32400;DHT22;45045;45.440;9.178;2023-02-23T09:38:32;18.20;99.90
32400;DHT22;45045;45.440;9.178;2023-02-23T09:40:58;18.40;99.90
32400;DHT22;45045;45.440;9.178;2023-02-23T09:46:08;18.70;99.90
32400;DHT22;45045;45.440;9.178;2023-02-23T09:48:37;18.90;99.90
32400;DHT22;45045;45.440;9.178;2023-02-23T09:51:05;19.10;99.90
32400;DHT22;45045;45.440;9.178;2023-02-23T09:53:41;19.00;99.90
32400;DHT22;45045;45.440;9.178;2023-02-23T09:56:13;19.10;99.90
32400;DHT22;45045;45.440;9.178;2023-02-23T09:58:41;19.00;99.90
32400;DHT22;45045;45.440;9.178;2023-02-23T10:01:27;19.00;99.90
32400;DHT22;45045;45.440;9.178;2023-02-23T10:06:26;19.10;98.10
32400;DHT22;45045;45.440;9.178;2023-02-23T10:22:01;20.40;95.40
32400;DHT22;45045;45.440;9.178;2023-02-23T10:24:51;20.60;95.60
32400;DHT22;45045;45.440;9.178;2023-02-23T10:27:19;20.50;95.50
32400;DHT22;45045;45.440;9.178;2023-02-23T10:29:48;20.70;94.00
32400;DHT22;45045;45.440;9.178;2023-02-23T10:32:26;21.20;93.40
32400;DHT22;45045;45.440;9.178;2023-02-23T10:34:55;21.40;92.40
32400;DHT22;45045;45.440;9.178;2023-02-23T10:37:22;21.20;92.60
32400;DHT22;45045;45.440;9.178;2023-02-23T10:39:49;21.40;93.00
32400;DHT22;45045;45.440;9.178;2023-02-23T10:42:26;21.70;92.60
32400;DHT22;45045;45.440;9.178;2023-02-23T10:44:59;21.60;90.30
32400;DHT22;45045;45.440;9.178;2023-02-23T10:47:30;21.50;90.70
32400;DHT22;45045;45.440;9.178;2023-02-23T10:49:57;21.40;89.70
32400;DHT22;45045;45.440;9.178;2023-02-23T10:52:32;20.80;90.30
32400;DHT22;45045;45.440;9.178;2023-02-23T10:54:58;20.50;91.30
32400;DHT22;45045;45.440;9.178;2023-02-23T10:57:33;20.60;90.90
32400;DHT22;45045;45.440;9.178;2023-02-23T11:00:04;20.50;91.20
32400;DHT22;45045;45.440;9.178;2023-02-23T11:02:31;20.10;91.40
32400;DHT22;45045;45.440;9.178;2023-02-23T11:04:59;20.00;91.70
32400;DHT22;45045;45.440;9.178;2023-02-23T11:07:30;20.10;92.30
32400;DHT22;45045;45.440;9.178;2023-02-23T11:09:58;20.10;92.10
32400;DHT22;45045;45.440;9.178;2023-02-23T11:12:37;20.00;91.60
32400;DHT22;45045;45.440;9.178;2023-02-23T11:18:04;19.80;92.90
32400;DHT22;45045;45.440;9.178;2023-02-23T11:20:37;19.60;93.00
32400;DHT22;45045;45.440;9.178;2023-02-23T11:25:57;19.40;93.50
32400;DHT22;45045;45.440;9.178;2023-02-23T11:28:39;19.40;93.60
32400;DHT22;45045;45.440;9.178;2023-02-23T11:31:16;19.30;93.80
32400;DHT22;45045;45.440;9.178;2023-02-23T11:33:43;19.40;94.20
32400;DHT22;45045;45.440;9.178;2023-02-23T11:36:16;19.60;93.70
32400;DHT22;45045;45.440;9.178;2023-02-23T11:38:44;19.50;93.70
32400;DHT22;45045;45.440;9.178;2023-02-23T11:41:22;19.50;93.70
32400;DHT22;45045;45.440;9.178;2023-02-23T11:43:56;19.50;93.60
32400;DHT22;45045;45.440;9.178;2023-02-23T11:46:25;19.60;93.40
32400;DHT22;45045;45.440;9.178;2023-02-23T11:49:08;19.60;93.10
32400;DHT22;45045;45.440;9.178;2023-02-23T11:51:39;19.50;93.00
32400;DHT22;45045;45.440;9.178;2023-02-23T11:54:20;19.60;93.40
32400;DHT22;45045;45.440;9.178;2023-02-23T11:56:47;19.70;93.10
32400;DHT22;45045;45.440;9.178;2023-02-23T11:59:18;19.60;92.30
32400;DHT22;45045;45.440;9.178;2023-02-23T12:01:48;19.60;92.70
32400;DHT22;45045;45.440;9.178;2023-02-23T12:04:36;19.60;92.20
32400;DHT22;45045;45.440;9.178;2023-02-23T12:07:34;19.60;92.20
32400;DHT22;45045;45.440;9.178;2023-02-23T12:10:28;19.50;92.20
32400;DHT22;45045;45.440;9.178;2023-02-23T12:13:26;19.10;93.10
32400;DHT22;45045;45.440;9.178;2023-02-23T12:15:56;19.10;93.70
32400;DHT22;45045;45.440;9.178;2023-02-23T12:21:09;19.10;96.90
32400;DHT22;45045;45.440;9.178;2023-02-23T12:23:40;19.60;99.90
32400;DHT22;45045;45.440;9.178;2023-02-23T12:26:15;19.90;99.90
32400;DHT22;45045;45.440;9.178;2023-02-23T12:28:55;19.70;93.10
32400;DHT22;45045;45.440;9.178;2023-02-23T12:31:42;19.80;98.40
32400;DHT22;45045;45.440;9.178;2023-02-23T12:36:51;19.50;93.10
32400;DHT22;45045;45.440;9.178;2023-02-23T12:39:35;19.20;93.50
32400;DHT22;45045;45.440;9.178;2023-02-23T12:45:16;18.90;94.00
32400;DHT22;45045;45.440;9.178;2023-02-23T12:50:36;18.90;94.10
32400;DHT22;45045;45.440;9.178;2023-02-23T12:53:16;19.20;94.00
32400;DHT22;45045;45.440;9.178;2023-02-23T13:02:03;20.00;91.30
32400;DHT22;45045;45.440;9.178;2023-02-23T13:10:51;21.00;90.30
32400;DHT22;45045;45.440;9.178;2023-02-23T13:16:00;22.00;85.00
32400;DHT22;45045;45.440;9.178;2023-02-23T13:18:31;22.30;82.70
32400;DHT22;45045;45.440;9.178;2023-02-23T13:31:48;20.90;84.50
32400;DHT22;45045;45.440;9.178;2023-02-23T13:34:24;20.90;84.70
32400;DHT22;45045;45.440;9.178;2023-02-23T13:36:51;20.90;83.90
32400;DHT22;45045;45.440;9.178;2023-02-23T13:41:51;20.50;85.40
32400;DHT22;45045;45.440;9.178;2023-02-23T13:52:36;20.30;86.20
32400;DHT22;45045;45.440;9.178;2023-02-23T13:55:31;20.50;85.60
32400;DHT22;45045;45.440;9.178;2023-02-23T13:57:53;20.70;85.00
32400;DHT22;45045;45.440;9.178;2023-02-23T14:00:22;21.10;84.10
32400;DHT22;45045;45.440;9.178;2023-02-23T14:02:49;21.10;83.20
32400;DHT22;45045;45.440;9.178;2023-02-23T14:05:19;21.10;91.20
32400;DHT22;45045;45.440;9.178;2023-02-23T14:07:52;21.20;93.40
32400;DHT22;45045;45.440;9.178;2023-02-23T14:10:22;21.20;94.30
32400;DHT22;45045;45.440;9.178;2023-02-23T14:13:03;21.20;94.70
32400;DHT22;45045;45.440;9.178;2023-02-23T14:26:07;20.40;87.30
32400;DHT22;45045;45.440;9.178;2023-02-23T14:28:35;20.30;87.30
32400;DHT22;45045;45.440;9.178;2023-02-23T14:39:01;19.80;88.00
32400;DHT22;45045;45.440;9.178;2023-02-23T14:41:59;19.90;88.50
32400;DHT22;45045;45.440;9.178;2023-02-23T14:44:35;19.90;87.20
32400;DHT22;45045;45.440;9.178;2023-02-23T14:47:10;19.90;87.30
32400;DHT22;45045;45.440;9.178;2023-02-23T14:49:42;19.90;87.40
32400;DHT22;45045;45.440;9.178;2023-02-23T14:52:26;20.10;86.70
32400;DHT22;45045;45.440;9.178;2023-02-23T14:57:41;20.20;86.00
32400;DHT22;45045;45.440;9.178;2023-02-23T15:00:17;20.20;85.70
32400;DHT22;45045;45.440;9.178;2023-02-23T15:02:59;20.10;86.10
32400;DHT22;45045;45.440;9.178;2023-02-23T15:05:36;19.90;86.40
32400;DHT22;45045;45.440;9.178;2023-02-23T15:08:08;19.80;86.80
32400;DHT22;45045;45.440;9.178;2023-02-23T15:10:40;19.80;87.10
32400;DHT22;45045;45.440;9.178;2023-02-23T15:13:31;19.60;87.20
32400;DHT22;45045;45.440;9.178;2023-02-23T15:16:02;19.50;88.60
32400;DHT22;45045;45.440;9.178;2023-02-23T15:18:37;19.40;90.00
32400;DHT22;45045;45.440;9.178;2023-02-23T15:21:07;19.40;90.30
32400;DHT22;45045;45.440;9.178;2023-02-23T15:23:35;19.30;90.20
32400;DHT22;45045;45.440;9.178;2023-02-23T15:26:27;19.40;90.20
32400;DHT22;45045;45.440;9.178;2023-02-23T15:31:35;19.20;90.30
32400;DHT22;45045;45.440;9.178;2023-02-23T15:34:01;19.00;90.40
32400;DHT22;45045;45.440;9.178;2023-02-23T15:36:30;19.00;90.70
32400;DHT22;45045;45.440;9.178;2023-02-23T15:38:59;18.90;91.00
32400;DHT22;45045;45.440;9.178;2023-02-23T15:41:33;18.90;91.00
32400;DHT22;45045;45.440;9.178;2023-02-23T15:44:22;19.00;90.80
32400;DHT22;45045;45.440;9.178;2023-02-23T15:47:01;18.90;90.80
32400;DHT22;45045;45.440;9.178;2023-02-23T15:49:30;18.90;91.10
32400;DHT22;45045;45.440;9.178;2023-02-23T15:52:13;18.90;91.10
32400;DHT22;45045;45.440;9.178;2023-02-23T15:54:54;18.70;91.30
32400;DHT22;45045;45.440;9.178;2023-02-23T15:57:55;18.70;91.60
32400;DHT22;45045;45.440;9.178;2023-02-23T16:00:25;18.60;91.60
32400;DHT22;45045;45.440;9.178;2023-02-23T16:03:01;18.50;91.70
32400;DHT22;45045;45.440;9.178;2023-02-23T16:05:30;18.60;91.80
32400;DHT22;45045;45.440;9.178;2023-02-23T16:08:24;18.60;91.80
32400;DHT22;45045;45.440;9.178;2023-02-23T16:10:58;18.50;91.70
32400;DHT22;45045;45.440;9.178;2023-02-23T16:13:24;18.50;91.60
32400;DHT22;45045;45.440;9.178;2023-02-23T16:15:53;18.40;91.70
32400;DHT22;45045;45.440;9.178;2023-02-23T16:18:25;18.30;91.80
32400;DHT22;45045;45.440;9.178;2023-02-23T16:20:53;18.30;92.00
32400;DHT22;45045;45.440;9.178;2023-02-23T16:23:23;18.20;92.20
32400;DHT22;45045;45.440;9.178;2023-02-23T16:25:55;18.20;92.20
32400;DHT22;45045;45.440;9.178;2023-02-23T16:28:26;18.20;92.30
32400;DHT22;45045;45.440;9.178;2023-02-23T16:33:28;18.10;92.50
32400;DHT22;45045;45.440;9.178;2023-02-23T16:41:18;17.90;92.90
32400;DHT22;45045;45.440;9.178;2023-02-23T16:43:48;17.80;93.20
32400;DHT22;45045;45.440;9.178;2023-02-23T16:46:15;17.80;93.30
32400;DHT22;45045;45.440;9.178;2023-02-23T16:48:41;17.90;93.40
32400;DHT22;45045;45.440;9.178;2023-02-23T16:51:18;17.90;93.30
32400;DHT22;45045;45.440;9.178;2023-02-23T16:53:45;17.80;93.40
32400;DHT22;45045;45.440;9.178;2023-02-23T16:56:14;17.80;93.60
32400;DHT22;45045;45.440;9.178;2023-02-23T16:58:44;17.80;93.70
32400;DHT22;45045;45.440;9.178;2023-02-23T17:01:12;17.80;93.70
32400;DHT22;45045;45.440;9.178;2023-02-23T17:03:42;17.90;93.80
32400;DHT22;45045;45.440;9.178;2023-02-23T17:06:10;17.90;93.80
32400;DHT22;45045;45.440;9.178;2023-02-23T17:08:37;17.80;93.90
32400;DHT22;45045;45.440;9.178;2023-02-23T17:11:04;17.70;94.30
32400;DHT22;45045;45.440;9.178;2023-02-23T17:13:30;17.70;94.50
32400;DHT22;45045;45.440;9.178;2023-02-23T17:16:02;17.60;94.50
32400;DHT22;45045;45.440;9.178;2023-02-23T17:18:30;17.60;94.50
32400;DHT22;45045;45.440;9.178;2023-02-23T17:20:58;17.60;94.60
32400;DHT22;45045;45.440;9.178;2023-02-23T17:23:27;17.60;94.70
32400;DHT22;45045;45.440;9.178;2023-02-23T17:25:54;17.60;94.70
32400;DHT22;45045;45.440;9.178;2023-02-23T17:28:23;17.50;94.80
32400;DHT22;45045;45.440;9.178;2023-02-23T17:30:50;17.50;94.80
32400;DHT22;45045;45.440;9.178;2023-02-23T17:33:15;17.50;94.90
32400;DHT22;45045;45.440;9.178;2023-02-23T17:35:41;17.40;95.10
32400;DHT22;45045;45.440;9.178;2023-02-23T17:38:08;17.30;95.30
32400;DHT22;45045;45.440;9.178;2023-02-23T17:40:34;17.30;95.30
32400;DHT22;45045;45.440;9.178;2023-02-23T17:43:04;17.60;99.90
32400;DHT22;45045;45.440;9.178;2023-02-23T17:45:32;18.30;99.90
32400;DHT22;45045;45.440;9.178;2023-02-23T17:47:57;18.10;94.80
32400;DHT22;45045;45.440;9.178;2023-02-23T17:50:24;17.70;95.30
32400;DHT22;45045;45.440;9.178;2023-02-23T17:52:52;17.60;95.70
32400;DHT22;45045;45.440;9.178;2023-02-23T17:55:18;17.50;95.90
32400;DHT22;45045;45.440;9.178;2023-02-23T17:57:45;17.40;96.20
32400;DHT22;45045;45.440;9.178;2023-02-23T18:00:13;17.20;96.50
32400;DHT22;45045;45.440;9.178;2023-02-23T18:02:39;17.20;96.80
32400;DHT22;45045;45.440;9.178;2023-02-23T18:05:06;17.20;96.80
32400;DHT22;45045;45.440;9.178;2023-02-23T18:07:32;17.20;97.10
32400;DHT22;45045;45.440;9.178;2023-02-23T18:09:58;17.10;97.20
32400;DHT22;45045;45.440;9.178;2023-02-23T18:12:24;17.00;97.40
32400;DHT22;45045;45.440;9.178;2023-02-23T18:14:49;17.00;97.50